Terminal Aerodrome Forecast
Issued by NWS

Home | Current Version | Previous Version | Text Only | Print | Product List | Glossary On
Versions: 1 2 3 4 5 6 7 8 9 10 11 12 13 14 15 16 17 18 19 20
000
FTUS41 KGYX 222335
TAFHIE
TAF
KHIE 222335Z 2300/2324 00000KT 6SM BR VCSH OVC025
     FM230300 VRB03KT P6SM OVC015
     FM230700 00000KT 2SM BR BKN008
     FM231200 00000KT P6SM BKN035=

USA.gov is the U.S. government's official web portal to all federal, state and local government web resources and services.